sensor_id;sensor_type;location;lat;lon;timestamp;pressure;altitude;pressure_sealevel;temperature;humidity
50592;BME280;36548;50.506;30.834;2023-01-13T00:00:20;100845.23;;;-2.35;70.38
50592;BME280;36548;50.506;30.834;2023-01-13T00:01:29;100855.72;;;-2.21;70.40
50592;BME280;36548;50.506;30.834;2023-01-13T00:02:38;100860.10;;;-2.11;70.21
50592;BME280;36548;50.506;30.834;2023-01-13T00:03:48;100851.30;;;-2.03;70.07
50592;BME280;36548;50.506;30.834;2023-01-13T00:04:58;100853.02;;;-1.95;69.78
50592;BME280;36548;50.506;30.834;2023-01-13T00:06:11;100851.27;;;-1.91;69.47
50592;BME280;36548;50.506;30.834;2023-01-13T00:07:21;100847.72;;;-1.84;69.39
50592;BME280;36548;50.506;30.834;2023-01-13T00:08:30;100853.00;;;-1.87;68.96
50592;BME280;36548;50.506;30.834;2023-01-13T00:09:39;100857.39;;;-1.91;69.03
50592;BME280;36548;50.506;30.834;2023-01-13T00:10:48;100857.44;;;-2.00;69.10
50592;BME280;36548;50.506;30.834;2023-01-13T00:11:57;100852.17;;;-2.04;69.10
50592;BME280;36548;50.506;30.834;2023-01-13T00:13:06;100855.73;;;-2.15;68.95
50592;BME280;36548;50.506;30.834;2023-01-13T00:14:15;100854.87;;;-2.23;69.12
50592;BME280;36548;50.506;30.834;2023-01-13T00:15:26;100854.00;;;-2.31;69.27
50592;BME280;36548;50.506;30.834;2023-01-13T00:16:41;100855.74;;;-2.26;69.22
50592;BME280;36548;50.506;30.834;2023-01-13T00:17:51;100861.05;;;-2.44;69.16
50592;BME280;36548;50.506;30.834;2023-01-13T00:19:01;100856.65;;;-2.51;69.31
50592;BME280;36548;50.506;30.834;2023-01-13T00:20:11;100862.80;;;-2.60;69.63
50592;BME280;36548;50.506;30.834;2023-01-13T00:21:23;100857.55;;;-2.65;70.04
50592;BME280;36548;50.506;30.834;2023-01-13T00:22:39;100854.91;;;-2.60;70.48
50592;BME280;36548;50.506;30.834;2023-01-13T00:23:50;100858.44;;;-2.70;70.49
50592;BME280;36548;50.506;30.834;2023-01-13T00:25:01;100866.33;;;-2.72;70.48
50592;BME280;36548;50.506;30.834;2023-01-13T00:26:18;100861.06;;;-2.72;70.72
50592;BME280;36548;50.506;30.834;2023-01-13T00:27:29;100869.80;;;-2.67;70.72
50592;BME280;36548;50.506;30.834;2023-01-13T00:28:38;100870.69;;;-2.52;70.85
50592;BME280;36548;50.506;30.834;2023-01-13T00:29:48;100870.67;;;-2.37;70.50
50592;BME280;36548;50.506;30.834;2023-01-13T00:32:28;100855.70;;;-2.04;70.13
50592;BME280;36548;50.506;30.834;2023-01-13T00:33:38;100857.45;;;-2.06;69.96
50592;BME280;36548;50.506;30.834;2023-01-13T00:34:47;100854.80;;;-1.97;69.79
50592;BME280;36548;50.506;30.834;2023-01-13T00:35:58;100860.02;;;-1.91;69.54
50592;BME280;36548;50.506;30.834;2023-01-13T00:37:08;100848.59;;;-1.85;69.49
50592;BME280;36548;50.506;30.834;2023-01-13T00:38:19;100847.77;;;-1.90;69.63
50592;BME280;36548;50.506;30.834;2023-01-13T00:39:28;100846.02;;;-1.93;69.48
50592;BME280;36548;50.506;30.834;2023-01-13T00:40:38;100852.16;;;-2.03;69.30
50592;BME280;36548;50.506;30.834;2023-01-13T00:41:51;100850.44;;;-2.09;69.45
50592;BME280;36548;50.506;30.834;2023-01-13T00:43:19;100851.35;;;-2.19;69.58
50592;BME280;36548;50.506;30.834;2023-01-13T00:44:31;100854.88;;;-2.25;69.71
50592;BME280;36548;50.506;30.834;2023-01-13T00:45:40;100854.87;;;-2.31;69.51
50592;BME280;36548;50.506;30.834;2023-01-13T00:46:49;100849.64;;;-2.38;69.36
50592;BME280;36548;50.506;30.834;2023-01-13T00:47:59;100846.15;;;-2.47;69.85
50592;BME280;36548;50.506;30.834;2023-01-13T00:49:09;100857.55;;;-2.52;70.04
50592;BME280;36548;50.506;30.834;2023-01-13T00:50:18;100847.02;;;-2.57;70.25
50592;BME280;36548;50.506;30.834;2023-01-13T00:51:27;100851.41;;;-2.59;70.26
50592;BME280;36548;50.506;30.834;2023-01-13T00:52:36;100852.28;;;-2.60;70.11
50592;BME280;36548;50.506;30.834;2023-01-13T00:53:48;100842.66;;;-2.57;70.13
50592;BME280;36548;50.506;30.834;2023-01-13T00:54:58;100844.39;;;-2.48;70.22
50592;BME280;36548;50.506;30.834;2023-01-13T00:56:15;100847.89;;;-2.41;70.25
50592;BME280;36548;50.506;30.834;2023-01-13T00:57:31;100847.84;;;-2.23;70.15
50592;BME280;36548;50.506;30.834;2023-01-13T00:58:42;100841.73;;;-2.26;70.18
50592;BME280;36548;50.506;30.834;2023-01-13T00:59:52;100844.31;;;-2.17;70.02
50592;BME280;36548;50.506;30.834;2023-01-13T01:01:04;100844.31;;;-2.11;69.90
50592;BME280;36548;50.506;30.834;2023-01-13T01:02:15;100847.80;;;-2.02;69.81
50592;BME280;36548;50.506;30.834;2023-01-13T01:03:24;100841.63;;;-1.94;69.68
50592;BME280;36548;50.506;30.834;2023-01-13T01:04:33;100841.59;;;-1.89;69.47
50592;BME280;36548;50.506;30.834;2023-01-13T01:05:48;100841.56;;;-1.80;69.33
50592;BME280;36548;50.506;30.834;2023-01-13T01:06:59;100845.14;;;-1.98;69.35
50592;BME280;36548;50.506;30.834;2023-01-13T01:08:08;100839.89;;;-2.06;69.31
50592;BME280;36548;50.506;30.834;2023-01-13T01:09:17;100842.56;;;-2.12;69.34
50592;BME280;36548;50.506;30.834;2023-01-13T01:10:26;100834.70;;;-2.18;69.40
50592;BME280;36548;50.506;30.834;2023-01-13T01:11:35;100840.84;;;-2.27;69.40
50592;BME280;36548;50.506;30.834;2023-01-13T01:12:44;100840.86;;;-2.33;69.46
50592;BME280;36548;50.506;30.834;2023-01-13T01:14:01;100835.59;;;-2.28;69.65
50592;BME280;36548;50.506;30.834;2023-01-13T01:15:12;100841.73;;;-2.43;69.55
50592;BME280;36548;50.506;30.834;2023-01-13T01:16:27;100837.36;;;-2.47;69.55
50592;BME280;36548;50.506;30.834;2023-01-13T01:17:36;100833.87;;;-2.55;69.69
50592;BME280;36548;50.506;30.834;2023-01-13T01:18:54;100831.23;;;-2.46;69.64
50592;BME280;36548;50.506;30.834;2023-01-13T01:20:05;100833.00;;;-2.65;69.79
50592;BME280;36548;50.506;30.834;2023-01-13T01:21:15;100834.78;;;-2.69;69.96
50592;BME280;36548;50.506;30.834;2023-01-13T01:22:25;100833.03;;;-2.75;69.99
50592;BME280;36548;50.506;30.834;2023-01-13T01:23:36;100834.78;;;-2.80;70.24
50592;BME280;36548;50.506;30.834;2023-01-13T01:24:46;100830.40;;;-2.84;70.43
50592;BME280;36548;50.506;30.834;2023-01-13T01:26:03;100825.16;;;-2.87;70.57
50592;BME280;36548;50.506;30.834;2023-01-13T01:27:19;100821.63;;;-2.77;70.90
50592;BME280;36548;50.506;30.834;2023-01-13T01:28:29;100821.64;;;-2.78;71.25
50592;BME280;36548;50.506;30.834;2023-01-13T01:29:38;100827.75;;;-2.67;71.28
50592;BME280;36548;50.506;30.834;2023-01-13T01:30:48;100820.73;;;-2.59;71.04
50592;BME280;36548;50.506;30.834;2023-01-13T01:31:59;100825.11;;;-2.47;71.04
50592;BME280;36548;50.506;30.834;2023-01-13T01:33:08;100828.59;;;-2.35;70.89
50592;BME280;36548;50.506;30.834;2023-01-13T01:34:18;100826.81;;;-2.24;70.83
50592;BME280;36548;50.506;30.834;2023-01-13T01:35:27;100820.64;;;-2.17;70.56
50592;BME280;36548;50.506;30.834;2023-01-13T01:36:37;100818.02;;;-2.11;70.41
50592;BME280;36548;50.506;30.834;2023-01-13T01:37:48;100815.33;;;-2.01;70.29
50592;BME280;36548;50.506;30.834;2023-01-13T01:38:58;100810.07;;;-1.97;70.10
50592;BME280;36548;50.506;30.834;2023-01-13T01:40:10;100818.80;;;-1.87;70.04
50592;BME280;36548;50.506;30.834;2023-01-13T01:42:36;100814.30;;;-1.63;69.59
50592;BME280;36548;50.506;30.834;2023-01-13T01:45:46;100802.77;;;-1.44;69.04
50592;BME280;36548;50.506;30.834;2023-01-13T01:46:56;100811.62;;;-1.59;68.91
50592;BME280;36548;50.506;30.834;2023-01-13T01:48:06;100805.52;;;-1.67;69.05
50592;BME280;36548;50.506;30.834;2023-01-13T01:49:31;100802.96;;;-1.76;69.06
50592;BME280;36548;50.506;30.834;2023-01-13T01:50:42;100811.75;;;-1.85;68.98
50592;BME280;36548;50.506;30.834;2023-01-13T01:52:11;100802.16;;;-1.95;69.04
50592;BME280;36548;50.506;30.834;2023-01-13T01:53:24;100807.45;;;-2.04;68.95
50592;BME280;36548;50.506;30.834;2023-01-13T01:55:05;100802.22;;;-2.15;68.91
50592;BME280;36548;50.506;30.834;2023-01-13T01:56:12;100807.55;;;-2.26;69.04
50592;BME280;36548;50.506;30.834;2023-01-13T01:58:47;100796.17;;;-2.36;69.43
50592;BME280;36548;50.506;30.834;2023-01-13T01:59:59;100807.60;;;-2.52;69.63
50592;BME280;36548;50.506;30.834;2023-01-13T02:01:13;100807.59;;;-2.59;69.87
50592;BME280;36548;50.506;30.834;2023-01-13T02:02:23;100804.98;;;-2.62;69.95
50592;BME280;36548;50.506;30.834;2023-01-13T02:03:35;100801.47;;;-2.67;70.25
50592;BME280;36548;50.506;30.834;2023-01-13T02:04:48;100805.00;;;-2.68;70.39
50592;BME280;36548;50.506;30.834;2023-01-13T02:05:58;100800.63;;;-2.72;70.40
50592;BME280;36548;50.506;30.834;2023-01-13T02:07:08;100805.87;;;-2.67;70.38
50592;BME280;36548;50.506;30.834;2023-01-13T02:08:20;100812.01;;;-2.64;70.36
50592;BME280;36548;50.506;30.834;2023-01-13T02:09:30;100806.73;;;-2.58;70.51
50592;BME280;36548;50.506;30.834;2023-01-13T02:10:41;100804.95;;;-2.48;70.55
50592;BME280;36548;50.506;30.834;2023-01-13T02:11:58;100799.64;;;-2.25;70.43
50592;BME280;36548;50.506;30.834;2023-01-13T02:13:26;100802.27;;;-2.29;70.38
50592;BME280;36548;50.506;30.834;2023-01-13T02:14:37;100802.22;;;-2.15;70.46
50592;BME280;36548;50.506;30.834;2023-01-13T02:16:01;100791.61;;;-1.91;70.23
50592;BME280;36548;50.506;30.834;2023-01-13T04:31:24;100765.52;;;-3.81;84.98
50592;BME280;36548;50.506;30.834;2023-01-13T04:32:40;100773.42;;;-3.70;84.53
50592;BME280;36548;50.506;30.834;2023-01-13T04:33:53;100776.05;;;-3.73;84.18
50592;BME280;36548;50.506;30.834;2023-01-13T04:35:04;100779.56;;;-3.62;84.28
50592;BME280;36548;50.506;30.834;2023-01-13T04:36:13;100780.45;;;-3.53;83.91
50592;BME280;36548;50.506;30.834;2023-01-13T04:37:23;100777.85;;;-3.39;83.58
50592;BME280;36548;50.506;30.834;2023-01-13T04:38:31;100777.00;;;-3.24;83.17
50592;BME280;36548;50.506;30.834;2023-01-13T04:39:40;100775.22;;;-3.05;82.91
50592;BME280;36548;50.506;30.834;2023-01-13T04:40:49;100783.98;;;-2.89;82.54
50592;BME280;36548;50.506;30.834;2023-01-13T04:41:58;100787.47;;;-2.77;82.11
50592;BME280;36548;50.506;30.834;2023-01-13T04:43:09;100791.85;;;-2.65;81.41
50592;BME280;36548;50.506;30.834;2023-01-13T04:44:19;100779.55;;;-2.50;80.78
50592;BME280;36548;50.506;30.834;2023-01-13T04:45:28;100776.00;;;-2.35;80.42
50592;BME280;36548;50.506;30.834;2023-01-13T04:46:37;100775.94;;;-2.18;80.49
50592;BME280;36548;50.506;30.834;2023-01-13T04:47:46;100778.52;;;-2.06;79.86
50592;BME280;36548;50.506;30.834;2023-01-13T04:48:57;100786.39;;;-1.97;79.54
50592;BME280;36548;50.506;30.834;2023-01-13T04:50:07;100788.08;;;-1.86;79.28
50592;BME280;36548;50.506;30.834;2023-01-13T04:51:17;100774.02;;;-1.76;79.41
50592;BME280;36548;50.506;30.834;2023-01-13T04:52:26;100783.61;;;-1.67;79.00
50592;BME280;36548;50.506;30.834;2023-01-13T04:53:35;100787.05;;;-1.58;79.31
50592;BME280;36548;50.506;30.834;2023-01-13T04:54:44;100770.38;;;-1.57;78.26
50592;BME280;36548;50.506;30.834;2023-01-13T04:55:53;100783.49;;;-1.50;78.12
50592;BME280;36548;50.506;30.834;2023-01-13T04:57:02;100779.97;;;-1.48;77.89
50592;BME280;36548;50.506;30.834;2023-01-13T04:58:19;100781.66;;;-1.39;77.81
50592;BME280;36548;50.506;30.834;2023-01-13T04:59:28;100777.27;;;-1.35;77.30
50592;BME280;36548;50.506;30.834;2023-01-13T05:00:37;100768.45;;;-1.31;77.15
50592;BME280;36548;50.506;30.834;2023-01-13T05:01:46;100770.19;;;-1.29;76.73
50592;BME280;36548;50.506;30.834;2023-01-13T05:02:54;100776.28;;;-1.24;76.35
50592;BME280;36548;50.506;30.834;2023-01-13T05:04:05;100770.95;;;-1.14;76.46
50592;BME280;36548;50.506;30.834;2023-01-13T05:05:14;100766.49;;;-1.06;76.60
50592;BME280;36548;50.506;30.834;2023-01-13T05:06:25;100771.71;;;-1.01;75.73
50592;BME280;36548;50.506;30.834;2023-01-13T05:07:35;100777.91;;;-1.04;75.36
50592;BME280;36548;50.506;30.834;2023-01-13T05:08:45;100776.09;;;-0.99;75.40
50592;BME280;36548;50.506;30.834;2023-01-13T05:09:54;100774.33;;;-0.97;75.04
50592;BME280;36548;50.506;30.834;2023-01-13T05:11:03;100774.30;;;-0.94;74.70
50592;BME280;36548;50.506;30.834;2023-01-13T05:12:14;100774.28;;;-0.92;74.49
50592;BME280;36548;50.506;30.834;2023-01-13T05:13:41;100775.13;;;-0.87;74.34
50592;BME280;36548;50.506;30.834;2023-01-13T05:15:11;100778.59;;;-0.85;73.67
50592;BME280;36548;50.506;30.834;2023-01-13T05:16:39;100779.49;;;-0.84;73.38
50592;BME280;36548;50.506;30.834;2023-01-13T05:18:08;100783.84;;;-0.82;73.27
50592;BME280;36548;50.506;30.834;2023-01-13T05:19:16;100781.20;;;-0.82;72.70
50592;BME280;36548;50.506;30.834;2023-01-13T05:20:25;100775.08;;;-0.84;72.43
50592;BME280;36548;50.506;30.834;2023-01-13T05:21:35;100782.99;;;-0.84;72.36
50592;BME280;36548;50.506;30.834;2023-01-13T05:23:08;100788.99;;;-0.66;72.38
50592;BME280;36548;50.506;30.834;2023-01-13T05:24:35;100783.78;;;-0.74;72.04
50592;BME280;36548;50.506;30.834;2023-01-13T05:26:02;100784.62;;;-0.69;71.80
50592;BME280;36548;50.506;30.834;2023-01-13T05:27:11;100793.36;;;-0.65;71.59
50592;BME280;36548;50.506;30.834;2023-01-13T05:28:20;100786.34;;;-0.65;71.45
50592;BME280;36548;50.506;30.834;2023-01-13T05:29:29;100792.45;;;-0.63;71.32
50592;BME280;36548;50.506;30.834;2023-01-13T05:30:43;100794.14;;;-0.56;71.39
50592;BME280;36548;50.506;30.834;2023-01-13T05:31:54;100789.70;;;-0.50;70.95
50592;BME280;36548;50.506;30.834;2023-01-13T05:33:03;100794.07;;;-0.48;70.70
50592;BME280;36548;50.506;30.834;2023-01-13T05:34:12;100792.30;;;-0.47;70.54
50592;BME280;36548;50.506;30.834;2023-01-13T05:35:24;100787.86;;;-0.42;70.04
50592;BME280;36548;50.506;30.834;2023-01-13T05:36:39;100784.25;;;-0.35;69.50
50592;BME280;36548;50.506;30.834;2023-01-13T05:37:48;100792.30;;;-0.47;69.40
50592;BME280;36548;50.506;30.834;2023-01-13T05:38:57;100787.98;;;-0.55;69.10
50592;BME280;36548;50.506;30.834;2023-01-13T05:40:08;100787.14;;;-0.60;69.04
50592;BME280;36548;50.506;30.834;2023-01-13T05:41:36;100783.74;;;-0.71;68.71
50592;BME280;36548;50.506;30.834;2023-01-13T05:43:13;100792.73;;;-0.92;68.83
50592;BME280;36548;50.506;30.834;2023-01-13T05:44:30;100781.47;;;-1.13;69.14
50592;BME280;36548;50.506;30.834;2023-01-13T05:45:38;100787.75;;;-1.31;69.51
50592;BME280;36548;50.506;30.834;2023-01-13T05:46:48;100781.70;;;-1.44;69.37
50592;BME280;36548;50.506;30.834;2023-01-13T05:47:57;100780.91;;;-1.55;69.56
50592;BME280;36548;50.506;30.834;2023-01-13T05:49:07;100786.22;;;-1.66;69.87
50592;BME280;36548;50.506;30.834;2023-01-13T05:50:16;100781.00;;;-1.75;70.16
50592;BME280;36548;50.506;30.834;2023-01-13T05:51:31;100778.36;;;-1.70;69.96
50592;BME280;36548;50.506;30.834;2023-01-13T05:52:40;100791.59;;;-1.87;70.10
50592;BME280;36548;50.506;30.834;2023-01-13T05:53:49;100790.77;;;-1.99;70.68
50592;BME280;36548;50.506;30.834;2023-01-13T05:54:59;100796.05;;;-2.02;70.73
50592;BME280;36548;50.506;30.834;2023-01-13T05:56:09;100804.84;;;-2.08;70.91
50592;BME280;36548;50.506;30.834;2023-01-13T05:57:19;100797.81;;;-2.02;71.26
50592;BME280;36548;50.506;30.834;2023-01-13T05:58:29;100797.77;;;-1.96;71.39
50592;BME280;36548;50.506;30.834;2023-01-13T05:59:38;100794.23;;;-1.89;71.41
50592;BME280;36548;50.506;30.834;2023-01-13T06:00:48;100796.83;;;-1.80;71.31
50592;BME280;36548;50.506;30.834;2023-01-13T06:01:57;100795.02;;;-1.70;71.27
50592;BME280;36548;50.506;30.834;2023-01-13T06:03:06;100789.70;;;-1.64;71.08
50592;BME280;36548;50.506;30.834;2023-01-13T06:04:15;100789.64;;;-1.51;71.27
50592;BME280;36548;50.506;30.834;2023-01-13T06:05:26;100794.86;;;-1.42;70.84
50592;BME280;36548;50.506;30.834;2023-01-13T06:06:35;100800.08;;;-1.38;70.66
50592;BME280;36548;50.506;30.834;2023-01-13T06:07:44;100791.30;;;-1.32;70.46
50592;BME280;36548;50.506;30.834;2023-01-13T06:08:53;100801.80;;;-1.29;70.39
50592;BME280;36548;50.506;30.834;2023-01-13T06:10:04;100792.99;;;-1.25;70.24
50592;BME280;36548;50.506;30.834;2023-01-13T06:11:13;100794.70;;;-1.19;70.20
50592;BME280;36548;50.506;30.834;2023-01-13T06:12:23;100792.02;;;-1.14;70.12
50592;BME280;36548;50.506;30.834;2023-01-13T06:13:33;100796.37;;;-1.09;70.02
50592;BME280;36548;50.506;30.834;2023-01-13T06:14:42;100803.36;;;-1.05;69.93
50592;BME280;36548;50.506;30.834;2023-01-13T06:16:00;100803.33;;;-0.98;69.84
50592;BME280;36548;50.506;30.834;2023-01-13T06:17:10;100794.52;;;-0.94;69.46
50592;BME280;36548;50.506;30.834;2023-01-13T06:18:20;100802.42;;;-0.97;69.41
50592;BME280;36548;50.506;30.834;2023-01-13T06:19:30;100803.37;;;-1.06;69.33
50592;BME280;36548;50.506;30.834;2023-01-13T06:20:39;100808.72;;;-1.17;69.75
50592;BME280;36548;50.506;30.834;2023-01-13T06:21:47;100807.02;;;-1.24;69.64
50592;BME280;36548;50.506;30.834;2023-01-13T06:22:59;100798.33;;;-1.35;69.68
50592;BME280;36548;50.506;30.834;2023-01-13T06:24:09;100806.29;;;-1.46;69.92
50592;BME280;36548;50.506;30.834;2023-01-13T06:25:31;100805.47;;;-1.56;70.24
50592;BME280;36548;50.506;30.834;2023-01-13T06:26:39;100803.77;;;-1.63;70.36
50592;BME280;36548;50.506;30.834;2023-01-13T06:27:48;100802.05;;;-1.70;70.79
50592;BME280;36548;50.506;30.834;2023-01-13T06:28:57;100796.80;;;-1.75;70.73
50592;BME280;36548;50.506;30.834;2023-01-13T06:30:08;100795.03;;;-1.72;70.77
50592;BME280;36548;50.506;30.834;2023-01-13T06:31:19;100803.79;;;-1.66;70.58
50592;BME280;36548;50.506;30.834;2023-01-13T06:32:31;100795.83;;;-1.59;70.62
50592;BME280;36548;50.506;30.834;2023-01-13T06:33:52;100800.08;;;-1.38;70.49
50592;BME280;36548;50.506;30.834;2023-01-13T06:35:06;100802.78;;;-1.45;70.40
50592;BME280;36548;50.506;30.834;2023-01-13T06:36:23;100802.73;;;-1.36;70.26
50592;BME280;36548;50.506;30.834;2023-01-13T06:37:34;100803.55;;;-1.31;70.15
50592;BME280;36548;50.506;30.834;2023-01-13T08:27:07;100828.64;;;-3.02;85.46
50592;BME280;36548;50.506;30.834;2023-01-13T08:28:22;100820.77;;;-2.91;84.93
50592;BME280;36548;50.506;30.834;2023-01-13T08:29:31;100821.64;;;-2.94;84.83
50592;BME280;36548;50.506;30.834;2023-01-13T08:30:41;100812.02;;;-2.88;84.47
50592;BME280;36548;50.506;30.834;2023-01-13T08:31:52;100815.52;;;-2.79;84.29
50592;BME280;36548;50.506;30.834;2023-01-13T08:33:07;100804.09;;;-2.65;84.23
50592;BME280;36548;50.506;30.834;2023-01-13T08:34:17;100806.72;;;-2.48;83.92
50592;BME280;36548;50.506;30.834;2023-01-13T08:35:26;100804.03;;;-2.30;83.56
50592;BME280;36548;50.506;30.834;2023-01-13T08:36:36;100799.59;;;-2.15;83.17
50592;BME280;36548;50.506;30.834;2023-01-13T08:37:46;100806.55;;;-1.99;82.79
50592;BME280;36548;50.506;30.834;2023-01-13T08:38:55;100796.84;;;-1.83;82.11
50592;BME280;36548;50.506;30.834;2023-01-13T08:40:07;100789.72;;;-1.61;83.07
50592;BME280;36548;50.506;30.834;2023-01-13T08:41:16;100784.39;;;-1.50;82.49
50592;BME280;36548;50.506;30.834;2023-01-13T08:42:29;100782.55;;;-1.42;81.78
50592;BME280;36548;50.506;30.834;2023-01-13T08:43:39;100782.52;;;-1.34;81.35
50592;BME280;36548;50.506;30.834;2023-01-13T08:44:54;100779.74;;;-1.17;80.69
50592;BME280;36548;50.506;30.834;2023-01-13T08:46:03;100781.56;;;-1.22;80.36
50592;BME280;36548;50.506;30.834;2023-01-13T08:47:13;100786.75;;;-1.14;80.03
50592;BME280;36548;50.506;30.834;2023-01-13T08:48:23;100783.16;;;-1.06;79.44
50592;BME280;36548;50.506;30.834;2023-01-13T08:49:32;100798.02;;;-0.94;79.36
50592;BME280;36548;50.506;30.834;2023-01-13T08:50:41;100797.95;;;-0.84;79.05
50592;BME280;36548;50.506;30.834;2023-01-13T08:51:51;100796.12;;;-0.76;78.36
50592;BME280;36548;50.506;30.834;2023-01-13T08:53:01;100799.59;;;-0.74;77.77
50592;BME280;36548;50.506;30.834;2023-01-13T08:54:10;100806.63;;;-0.73;77.19
50592;BME280;36548;50.506;30.834;2023-01-13T08:55:21;100796.92;;;-0.71;77.11
50592;BME280;36548;50.506;30.834;2023-01-13T08:56:32;100796.03;;;-0.69;76.95
50592;BME280;36548;50.506;30.834;2023-01-13T08:57:43;100800.38;;;-0.64;76.61
50592;BME280;36548;50.506;30.834;2023-01-13T08:58:58;100798.56;;;-0.58;76.36
50592;BME280;36548;50.506;30.834;2023-01-13T09:00:10;100795.02;;;-0.54;76.11
50592;BME280;36548;50.506;30.834;2023-01-13T09:01:22;100787.06;;;-0.50;75.83
50592;BME280;36548;50.506;30.834;2023-01-13T09:02:32;100793.13;;;-0.42;75.78
50592;BME280;36548;50.506;30.834;2023-01-13T09:03:42;100793.06;;;-0.35;75.36
50592;BME280;36548;50.506;30.834;2023-01-13T09:04:51;100788.56;;;-0.28;75.04
50592;BME280;36548;50.506;30.834;2023-01-13T09:06:00;100790.28;;;-0.24;74.62
50592;BME280;36548;50.506;30.834;2023-01-13T09:07:09;100794.67;;;-0.23;73.96
50592;BME280;36548;50.506;30.834;2023-01-13T09:08:25;100784.88;;;-0.13;73.68
50592;BME280;36548;50.506;30.834;2023-01-13T09:09:34;100795.56;;;-0.22;73.45
50592;BME280;36548;50.506;30.834;2023-01-13T09:10:44;100784.12;;;-0.23;72.69
50592;BME280;36548;50.506;30.834;2023-01-13T09:11:55;100786.76;;;-0.23;72.59
50592;BME280;36548;50.506;30.834;2023-01-13T09:13:22;100778.93;;;-0.29;71.69
50592;BME280;36548;50.506;30.834;2023-01-13T09:14:33;100781.59;;;-0.30;71.60
50592;BME280;36548;50.506;30.834;2023-01-13T09:15:45;100784.23;;;-0.33;71.41
50592;BME280;36548;50.506;30.834;2023-01-13T09:16:54;100780.75;;;-0.36;71.64
50592;BME280;36548;50.506;30.834;2023-01-13T09:18:11;100778.88;;;-0.26;71.99
50592;BME280;36548;50.506;30.834;2023-01-13T09:19:20;100783.41;;;-0.37;71.76
50592;BME280;36548;50.506;30.834;2023-01-13T09:20:29;100781.59;;;-0.33;71.65
50592;BME280;36548;50.506;30.834;2023-01-13T09:21:38;100792.19;;;-0.37;71.23
50592;BME280;36548;50.506;30.834;2023-01-13T09:22:54;100774.52;;;-0.28;70.89
50592;BME280;36548;50.506;30.834;2023-01-13T09:24:03;100782.63;;;-0.45;70.58
50592;BME280;36548;50.506;30.834;2023-01-13T09:25:11;100782.64;;;-0.47;70.69
50592;BME280;36548;50.506;30.834;2023-01-13T09:26:20;100784.42;;;-0.50;70.74
50592;BME280;36548;50.506;30.834;2023-01-13T09:27:29;100772.16;;;-0.55;70.77
50592;BME280;36548;50.506;30.834;2023-01-13T09:28:37;100777.39;;;-0.52;71.13
50592;BME280;36548;50.506;30.834;2023-01-13T09:29:48;100786.12;;;-0.45;71.34
50592;BME280;36548;50.506;30.834;2023-01-13T09:30:59;100778.17;;;-0.42;71.36
50592;BME280;36548;50.506;30.834;2023-01-13T09:32:13;100780.73;;;-0.34;71.16
50592;BME280;36548;50.506;30.834;2023-01-13T09:33:23;100785.09;;;-0.30;70.91
50592;BME280;36548;50.506;30.834;2023-01-13T09:34:50;100771.02;;;-0.29;70.70
50592;BME280;36548;50.506;30.834;2023-01-13T09:36:09;100774.47;;;-0.25;70.42
50592;BME280;36548;50.506;30.834;2023-01-13T09:37:20;100774.49;;;-0.27;70.16
50592;BME280;36548;50.506;30.834;2023-01-13T09:38:30;100777.13;;;-0.27;70.30
50592;BME280;36548;50.506;30.834;2023-01-13T09:39:38;100774.47;;;-0.25;70.29
50592;BME280;36548;50.506;30.834;2023-01-13T09:40:48;100777.95;;;-0.22;69.99
50592;BME280;36548;50.506;30.834;2023-01-13T09:42:01;100781.46;;;-0.21;69.78
50592;BME280;36548;50.506;30.834;2023-01-13T09:43:32;100781.44;;;-0.20;69.76
50592;BME280;36548;50.506;30.834;2023-01-13T09:46:17;100780.66;;;-0.26;70.13
50592;BME280;36548;50.506;30.834;2023-01-13T10:08:48;100756.23;;;-1.40;71.58
50592;BME280;36548;50.506;30.834;2023-01-13T14:26:47;100741.83;;;-2.35;82.39
50592;BME280;36548;50.506;30.834;2023-01-13T14:29:50;100725.91;;;-2.06;81.55
50592;BME280;36548;50.506;30.834;2023-01-13T14:31:03;100731.20;;;-2.11;81.28
50592;BME280;36548;50.506;30.834;2023-01-13T14:32:14;100729.41;;;-2.06;80.93
50592;BME280;36548;50.506;30.834;2023-01-13T14:33:30;100732.88;;;-1.97;80.73
50592;BME280;36548;50.506;30.834;2023-01-13T14:35:04;100716.91;;;-1.65;80.75
50592;BME280;36548;50.506;30.834;2023-01-13T14:37:36;100721.05;;;-1.31;80.55
50592;BME280;36548;50.506;30.834;2023-01-13T14:41:49;100728.69;;;-1.02;78.87
50592;BME280;36548;50.506;30.834;2023-01-13T14:43:00;100721.52;;;-0.88;78.40
50592;BME280;36548;50.506;30.834;2023-01-13T14:44:21;100721.41;;;-0.77;77.88
50592;BME280;36548;50.506;30.834;2023-01-13T14:45:30;100721.28;;;-0.64;77.38
50592;BME280;36548;50.506;30.834;2023-01-13T14:46:43;100726.38;;;-0.49;77.24
50592;BME280;36548;50.506;30.834;2023-01-13T14:47:53;100717.48;;;-0.39;76.68
50592;BME280;36548;50.506;30.834;2023-01-13T14:49:03;100727.05;;;-0.30;76.56
50592;BME280;36548;50.506;30.834;2023-01-13T14:50:19;100727.83;;;-0.22;76.11
50592;BME280;36548;50.506;30.834;2023-01-13T14:51:38;100717.94;;;-0.06;75.43
50592;BME280;36548;50.506;30.834;2023-01-13T14:52:50;100715.36;;;-0.10;75.46
50592;BME280;36548;50.506;30.834;2023-01-13T14:54:35;100725.85;;;-0.06;75.40
50592;BME280;36548;50.506;30.834;2023-01-13T14:55:34;100713.31;;;0.12;75.24
50592;BME280;36548;50.506;30.834;2023-01-13T14:56:51;100722.22;;;0.05;75.11
50592;BME280;36548;50.506;30.834;2023-01-13T14:58:26;100718.44;;;0.23;74.76
50592;BME280;36548;50.506;30.834;2023-01-13T15:01:29;100712.07;;;0.38;74.18
50592;BME280;36548;50.506;30.834;2023-01-13T15:02:45;100727.16;;;0.29;73.72
50592;BME280;36548;50.506;30.834;2023-01-13T15:04:15;100717.42;;;0.31;73.34
50592;BME280;36548;50.506;30.834;2023-01-13T15:06:46;100715.41;;;0.49;71.90
50592;BME280;36548;50.506;30.834;2023-01-13T15:09:26;100715.65;;;0.33;70.85
50592;BME280;36548;50.506;30.834;2023-01-13T15:10:52;100723.60;;;0.32;70.15
50592;BME280;36548;50.506;30.834;2023-01-13T15:12:21;100723.64;;;0.27;70.11